Skip Navigation LinksHome page > Weather > Current weather Skip Navigation Links

Current Weather

Capt Walter Francis Duke Rgnl At St Mary'S, Leonardtown, Md.

For information only: do not use for flight planning or navigation.
Latest weather
Observation time Tuesday, January 26, 2021 3:35 PM EST
Local time Tuesday, January 26, 2021 4:03 PM EST
Flight conditions Low Instrument Meteorological Conditions
Winds
Wind speed calm
Visibility 1.5 mi.
Sky condition
Ceiling 200 ft. overcast
Cloud layer overcast 200 ft.
Temperature 36°F
Dewpoint 36°F
Altimeter 29.84 in.Hg
Derived measurements
Relative humidity 100%
Wind chill 36°F
Density altitude -1241 ft.
Remarks
Fully automated report.
Automated weather observing station without precipitation discriminator.
METAR K2W6 262035Z AUTO 00000KT 1 1/2SM OVC002 02/02 A2984 RMK AO1

Settings

Location code

InnerDrive.Weather 4.0.6770.0 Release CLR 4.0.30319.42000
Copyright ©2018 Inner Drive Technology. All rights reserved. Portions Copyright ©1986-2018 David Braverman.

Find weather

Site navigation


Skip Navigation Links

Place info

Page info

PayPal - The safer, easier way to pay online!

Return home.

Copyright ©2021 Inner Drive Technology. Purveyors of fine, hand-crafted computer software. Page printed 2021-01-26T21:03:01 UTC.